Time;durP1;ratioP1;P1;durP2;ratioP2;P2;SDS_P1;SDS_P2;PMS_P1;PMS_P2;Temp;Humidity;BMP_temperature;BMP_pressure;BME280_temperature;BME280_humidity;BME280_pressure;Samples;Min_cycle;Max_cycle;Signal;HPM_P1;HPM_P2
2022/05/04 00:01:29;;;;;;;5.55;4.78;;;;;;;13.87;nan;100430.88;5036643;23;20060;-73
2022/05/04 00:03:54;;;;;;;6.20;4.68;;;;;;;13.83;nan;100432.22;5034877;28;20551;-73
2022/05/04 00:06:21;;;;;;;4.78;4.20;;;;;;;13.79;nan;100433.56;5034661;28;20085;-73
2022/05/04 00:08:47;;;;;;;5.13;4.47;;;;;;;13.78;nan;100427.44;5029295;28;20029;-73
2022/05/04 00:11:13;;;;;;;4.75;4.22;;;;;;;13.76;nan;100418.78;5034539;28;20516;-73
2022/05/04 00:13:38;;;;;;;5.32;4.82;;;;;;;13.69;nan;100423.16;5037131;28;20029;-73
2022/05/04 00:16:04;;;;;;;5.75;4.50;;;;;;;13.75;nan;100416.31;5034377;28;20508;-72
2022/05/04 00:18:30;;;;;;;4.85;3.95;;;;;;;13.77;nan;100420.44;5033031;28;20038;-72
2022/05/04 00:20:56;;;;;;;6.10;3.55;;;;;;;13.83;nan;100423.41;5036451;28;20156;-72
2022/05/04 00:23:22;;;;;;;5.35;3.53;;;;;;;13.84;nan;100423.22;5035309;28;20048;-72
2022/05/04 00:25:47;;;;;;;6.00;4.28;;;;;;;13.88;nan;100421.88;5031385;28;20037;-73
2022/05/04 00:28:12;;;;;;;6.00;5.00;;;;;;;13.93;nan;100410.72;5033741;28;20048;-73
2022/05/04 00:30:38;;;;;;;5.65;4.90;;;;;;;13.95;nan;100419.34;5035911;28;20030;-73
2022/05/04 00:33:03;;;;;;;6.82;4.53;;;;;;;13.95;nan;100417.50;5032322;28;20328;-72
2022/05/04 00:35:28;;;;;;;6.15;4.88;;;;;;;13.91;nan;100407.41;5029120;28;20099;-72
2022/05/04 00:37:54;;;;;;;5.82;5.03;;;;;;;13.92;nan;100423.19;5029740;28;20053;-73
2022/05/04 00:40:19;;;;;;;6.18;5.07;;;;;;;13.92;nan;100430.31;5031706;28;20537;-72
2022/05/04 00:42:45;;;;;;;5.22;4.38;;;;;;;13.94;nan;100431.81;5031822;28;20555;-72
2022/05/04 00:45:10;;;;;;;5.65;4.78;;;;;;;13.95;nan;100429.97;5027666;28;20128;-73
2022/05/04 00:47:36;;;;;;;6.32;5.35;;;;;;;13.92;nan;100425.00;5028129;28;20405;-73
2022/05/04 00:50:04;;;;;;;5.40;4.38;;;;;;;13.99;nan;100431.25;5028939;28;20389;-73
2022/05/04 00:52:31;;;;;;;5.18;4.38;;;;;;;14.00;nan;100430.28;5028885;28;20278;-72
2022/05/04 00:54:56;;;;;;;5.72;4.68;;;;;;;14.01;nan;100437.25;5028027;28;20042;-72
2022/05/04 00:58:54;;;;;;;4.65;4.10;;;;;;;14.04;nan;100434.25;5029725;28;20304;-72
2022/05/04 01:00:08;;;;;;;4.43;3.83;;;;;;;14.03;nan;100444.03;5030684;28;20025;-70
2022/05/04 01:02:33;;;;;;;4.10;3.55;;;;;;;14.02;nan;100441.56;5028951;28;20041;-73
2022/05/04 01:04:59;;;;;;;5.18;4.25;;;;;;;13.99;nan;100437.44;5031508;28;20034;-73
2022/05/04 01:07:24;;;;;;;6.25;4.95;;;;;;;13.96;nan;100436.94;5028205;28;20095;-73
2022/05/04 01:09:50;;;;;;;6.95;5.47;;;;;;;13.89;nan;100441.31;5028819;28;20030;-72
2022/05/04 01:12:15;;;;;;;7.03;5.82;;;;;;;13.79;nan;100444.19;5025707;28;20095;-72
2022/05/04 01:14:41;;;;;;;6.40;5.00;;;;;;;13.79;nan;100442.34;5028896;28;20604;-73
2022/05/04 01:17:06;;;;;;;5.55;4.45;;;;;;;13.80;nan;100443.22;5027032;28;20074;-72
2022/05/04 01:19:31;;;;;;;5.97;4.43;;;;;;;13.82;nan;100446.50;5029272;28;20092;-72
2022/05/04 01:21:57;;;;;;;5.72;4.28;;;;;;;13.84;nan;100441.84;5029883;28;20072;-72
2022/05/04 01:24:22;;;;;;;8.55;5.53;;;;;;;13.84;nan;100443.66;5026459;28;20095;-72
2022/05/04 01:26:48;;;;;;;8.23;5.40;;;;;;;13.84;nan;100441.84;5026608;28;20037;-73
2022/05/04 01:29:14;;;;;;;8.43;6.07;;;;;;;13.87;nan;100438.00;5030432;28;20033;-72
2022/05/04 01:31:39;;;;;;;7.25;4.90;;;;;;;13.88;nan;100443.16;5030763;28;20033;-72
2022/05/04 01:34:04;;;;;;;5.97;4.53;;;;;;;13.87;nan;100444.16;5030897;28;20084;-72
2022/05/04 01:36:30;;;;;;;5.30;4.32;;;;;;;13.84;nan;100439.16;5029124;28;20581;-73
2022/05/04 01:38:55;;;;;;;5.57;4.70;;;;;;;13.83;nan;100444.69;5031385;28;20120;-72
2022/05/04 01:42:24;;;;;;;6.30;4.43;;;;;;;13.80;nan;100449.34;5032277;28;20398;-72
2022/05/04 01:44:15;;;;;;;4.75;4.05;;;;;;;13.76;nan;100453.34;5021029;28;20060;-72
2022/05/04 01:46:40;;;;;;;4.47;3.60;;;;;;;13.73;nan;100448.38;5030979;28;20405;-72
2022/05/04 01:49:05;;;;;;;3.80;3.40;;;;;;;13.69;nan;100449.72;5027615;28;20061;-73
2022/05/04 01:51:31;;;;;;;4.18;3.38;;;;;;;13.65;nan;100445.75;5031309;28;20144;-72
2022/05/04 01:53:56;;;;;;;3.25;2.95;;;;;;;13.60;nan;100442.78;5030607;28;20556;-73
2022/05/04 01:56:22;;;;;;;4.28;3.35;;;;;;;13.54;nan;100446.97;5031031;28;20046;-73
2022/05/04 01:58:47;;;;;;;4.78;4.20;;;;;;;13.52;nan;100441.00;5030759;28;20105;-73
2022/05/04 02:01:13;;;;;;;5.18;3.72;;;;;;;13.53;nan;100444.47;5031364;28;20497;-73
2022/05/04 02:03:39;;;;;;;5.32;4.05;;;;;;;13.50;nan;100448.31;5033589;28;20378;-73
2022/05/04 02:06:04;;;;;;;4.43;3.70;;;;;;;13.46;nan;100452.31;5034680;28;20029;-72
2022/05/04 02:08:30;;;;;;;3.95;3.00;;;;;;;13.43;nan;100441.22;5029298;28;20040;-72
2022/05/04 02:10:55;;;;;;;4.25;3.10;;;;;;;13.37;nan;100446.22;5031426;28;20057;-73
2022/05/04 02:13:21;;;;;;;3.75;3.28;;;;;;;13.35;nan;100440.25;5031501;28;20112;-73
2022/05/04 02:15:46;;;;;;;3.90;3.50;;;;;;;13.34;nan;100441.22;5030601;28;20034;-73
2022/05/04 02:18:11;;;;;;;4.03;2.80;;;;;;;13.35;nan;100445.56;5028694;28;20039;-73
2022/05/04 02:20:36;;;;;;;4.55;3.25;;;;;;;13.35;nan;100444.75;5030422;28;20029;-73
2022/05/04 02:23:02;;;;;;;5.00;4.30;;;;;;;13.29;nan;100440.94;5030588;28;20045;-72
2022/05/04 02:25:27;;;;;;;5.32;4.60;;;;;;;13.25;nan;100438.75;5029968;28;20045;-71
2022/05/04 02:27:52;;;;;;;4.22;3.70;;;;;;;13.20;nan;100452.53;5028485;28;20037;-72
2022/05/04 02:30:18;;;;;;;3.95;3.42;;;;;;;13.19;nan;100445.59;5030568;28;20029;-73
2022/05/04 02:32:43;;;;;;;3.83;3.40;;;;;;;13.19;nan;100448.25;5028290;28;20112;-73
2022/05/04 02:37:55;;;;;;;5.82;4.22;;;;;;;13.19;nan;100453.53;5030205;28;20053;-73
2022/05/04 02:40:21;;;;;;;5.70;4.38;;;;;;;13.16;nan;100444.09;5028292;28;20468;-73
2022/05/04 02:42:47;;;;;;;4.10;3.25;;;;;;;13.15;nan;100449.56;5026777;28;20129;-72
2022/05/04 02:45:14;;;;;;;4.07;3.67;;;;;;;13.14;nan;100454.06;5031978;28;20069;-72
2022/05/04 02:47:40;;;;;;;4.15;3.28;;;;;;;13.14;nan;100447.94;5028824;28;20030;-72
2022/05/04 02:50:06;;;;;;;3.88;3.38;;;;;;;13.13;nan;100456.88;5026746;28;20370;-73
2022/05/04 02:52:32;;;;;;;3.88;3.33;;;;;;;13.12;nan;100450.75;5045585;28;20456;-73
2022/05/04 02:54:57;;;;;;;4.53;3.70;;;;;;;13.13;nan;100454.22;5030296;28;20029;-72
2022/05/04 02:57:22;;;;;;;4.07;3.63;;;;;;;13.12;nan;100453.41;5028673;28;20453;-73
2022/05/04 02:59:48;;;;;;;4.20;3.80;;;;;;;13.10;nan;100450.06;5031932;28;20029;-73
2022/05/04 03:02:28;;;;;;;4.25;3.60;;;;;;;13.10;nan;100442.13;5029102;28;20068;-73
2022/05/04 03:05:05;;;;;;;4.40;3.88;;;;;;;13.07;nan;100446.94;5029700;28;20041;-73
2022/05/04 03:07:31;;;;;;;5.53;4.63;;;;;;;13.04;nan;100442.81;5027074;28;20049;-72
2022/05/04 03:09:58;;;;;;;4.88;3.72;;;;;;;13.05;nan;100444.47;5028300;28;20026;-73
2022/05/04 03:12:23;;;;;;;4.20;3.80;;;;;;;13.09;nan;100445.78;5028305;28;20045;-73
2022/05/04 03:14:49;;;;;;;3.80;3.40;;;;;;;13.15;nan;100446.91;5030024;28;20040;-72
2022/05/04 03:17:15;;;;;;;6.15;4.85;;;;;;;13.13;nan;100452.41;5030512;28;20037;-72
2022/05/04 03:19:40;;;;;;;6.07;5.07;;;;;;;13.12;nan;100445.44;5031440;28;20032;-72
2022/05/04 03:22:06;;;;;;;7.38;5.20;;;;;;;13.14;nan;100447.94;5029951;28;20045;-73
2022/05/04 03:24:32;;;;;;;4.40;4.00;;;;;;;13.15;nan;100445.09;5029375;28;20033;-73
2022/05/04 03:26:57;;;;;;;4.45;3.88;;;;;;;13.20;nan;100447.22;5030380;28;20033;-72
2022/05/04 03:29:23;;;;;;;3.70;3.25;;;;;;;13.22;nan;100445.22;5031054;28;20390;-72
2022/05/04 03:31:48;;;;;;;4.30;3.90;;;;;;;13.21;nan;100448.09;5032788;28;20040;-73
2022/05/04 03:34:13;;;;;;;6.07;4.47;;;;;;;13.18;nan;100449.25;5029577;28;20136;-72
2022/05/04 03:36:39;;;;;;;4.55;3.92;;;;;;;13.18;nan;100449.25;5031798;28;20066;-73
2022/05/04 03:39:06;;;;;;;4.10;3.58;;;;;;;13.20;nan;100447.22;5028799;28;20095;-72
2022/05/04 03:41:31;;;;;;;4.47;3.65;;;;;;;13.20;nan;100438.44;5029044;28;20057;-73
2022/05/04 03:43:57;;;;;;;6.30;5.10;;;;;;;13.20;nan;100441.09;5031026;28;20025;-72
2022/05/04 03:46:24;;;;;;;5.93;4.45;;;;;;;13.20;nan;100447.22;5030733;28;21007;-73
2022/05/04 03:48:52;;;;;;;5.00;4.50;;;;;;;13.17;nan;100444.91;5026947;28;20136;-73
2022/05/04 03:51:20;;;;;;;8.50;6.05;;;;;;;13.14;nan;100445.28;5028254;28;20183;-73
2022/05/04 03:53:46;;;;;;;5.60;4.65;;;;;;;13.15;nan;100447.75;5030328;28;20036;-72
2022/05/04 03:56:12;;;;;;;5.45;4.80;;;;;;;13.17;nan;100443.09;5027853;28;20068;-73
2022/05/04 03:58:37;;;;;;;5.30;4.70;;;;;;;13.16;nan;100444.09;5027876;28;20112;-73
2022/05/04 04:01:03;;;;;;;5.95;5.05;;;;;;;13.17;nan;100439.63;5027426;28;20041;-73
2022/05/04 04:03:28;;;;;;;5.38;4.80;;;;;;;13.16;nan;100452.06;5030191;28;20045;-73
2022/05/04 04:05:54;;;;;;;4.15;3.75;;;;;;;13.14;nan;100447.94;5029772;28;20034;-73
2022/05/04 04:08:20;;;;;;;4.15;3.72;;;;;;;13.15;nan;100445.09;5029618;28;20046;-73
2022/05/04 04:10:46;;;;;;;4.35;3.65;;;;;;;13.16;nan;100448.59;5032136;28;20037;-73
2022/05/04 04:13:11;;;;;;;3.40;3.10;;;;;;;13.17;nan;100452.88;5034194;28;20029;-72
2022/05/04 04:15:36;;;;;;;3.80;3.25;;;;;;;13.14;nan;100453.25;5030059;28;20018;-73
2022/05/04 04:18:02;;;;;;;4.40;3.60;;;;;;;13.11;nan;100443.78;5026227;28;20387;-71
2022/05/04 04:23:12;;;;;;;4.50;3.90;;;;;;;13.06;nan;100448.78;5027948;28;20048;-71
2022/05/04 04:25:37;;;;;;;4.20;3.58;;;;;;;13.08;nan;100453.91;5027589;28;20033;-71
2022/05/04 04:28:03;;;;;;;4.35;3.92;;;;;;;13.09;nan;100458.22;5027035;28;20125;-71
2022/05/04 04:30:29;;;;;;;4.97;4.20;;;;;;;13.08;nan;100461.88;5030886;28;20045;-71
2022/05/04 04:32:54;;;;;;;6.85;4.30;;;;;;;13.09;nan;100468.84;5029478;28;20056;-71
2022/05/04 04:35:19;;;;;;;5.32;4.47;;;;;;;13.10;nan;100478.47;5028103;28;20049;-71
2022/05/04 04:37:44;;;;;;;6.43;5.03;;;;;;;13.11;nan;100472.16;5029512;28;20044;-71
2022/05/04 04:40:10;;;;;;;6.82;5.30;;;;;;;13.12;nan;100479.13;5029435;28;20057;-71
2022/05/04 04:42:35;;;;;;;5.85;4.88;;;;;;;13.13;nan;100478.97;5029205;28;20042;-71
2022/05/04 04:45:01;;;;;;;6.35;4.57;;;;;;;13.17;nan;100469.63;5032604;28;20029;-71
2022/05/04 04:47:26;;;;;;;5.22;4.38;;;;;;;13.18;nan;100481.94;5034921;28;20033;-70
2022/05/04 04:49:55;;;;;;;6.35;5.40;;;;;;;13.18;nan;100481.13;5030851;28;20036;-71
2022/05/04 04:52:21;;;;;;;5.35;4.38;;;;;;;13.21;nan;100487.91;5029185;28;20130;-71
2022/05/04 04:54:46;;;;;;;5.18;4.65;;;;;;;13.20;nan;100492.38;5029007;28;20493;-71
2022/05/04 04:57:11;;;;;;;6.05;5.00;;;;;;;13.21;nan;100490.56;5026940;28;20039;-72
2022/05/04 04:59:37;;;;;;;7.00;5.07;;;;;;;13.23;nan;100488.53;5029253;28;20079;-72
2022/05/04 05:02:02;;;;;;;6.63;5.70;;;;;;;13.23;nan;100493.84;5026465;28;20067;-71
2022/05/04 05:04:27;;;;;;;6.68;5.53;;;;;;;13.25;nan;100492.72;5034089;28;20842;-71
2022/05/04 05:06:53;;;;;;;6.18;5.32;;;;;;;13.29;nan;100488.72;5032210;28;20038;-72
2022/05/04 05:09:18;;;;;;;5.45;4.75;;;;;;;13.34;nan;100491.69;5032630;28;20117;-72
2022/05/04 05:11:43;;;;;;;7.10;5.15;;;;;;;13.38;nan;100490.38;5031993;28;20045;-72
2022/05/04 05:16:52;;;;;;;7.25;6.10;;;;;;;13.38;nan;100498.34;5026259;28;20063;-72
2022/05/04 05:19:18;;;;;;;9.75;7.00;;;;;;;13.29;nan;100502.00;5026912;28;20033;-72
2022/05/04 05:21:43;;;;;;;7.53;6.45;;;;;;;13.19;nan;100496.03;5032652;28;20061;-71
2022/05/04 05:24:08;;;;;;;6.72;5.40;;;;;;;13.08;nan;100496.38;5028785;28;20072;-72
2022/05/04 05:26:34;;;;;;;7.30;5.38;;;;;;;13.05;nan;100499.38;5030079;28;20030;-72
2022/05/04 05:28:59;;;;;;;6.45;5.25;;;;;;;13.03;nan;100496.88;5026346;28;20133;-71
2022/05/04 05:31:24;;;;;;;7.65;6.10;;;;;;;13.01;nan;100506.00;5031805;28;20125;-72
2022/05/04 05:33:50;;;;;;;8.27;6.07;;;;;;;12.98;nan;100506.34;5039405;28;20033;-71
2022/05/04 05:36:15;;;;;;;7.13;6.13;;;;;;;12.93;nan;100507.69;5029331;28;20041;-71
2022/05/04 05:38:40;;;;;;;7.93;6.90;;;;;;;12.84;nan;100507.84;5031882;28;20042;-71
2022/05/04 05:41:06;;;;;;;6.63;5.63;;;;;;;12.85;nan;100509.53;5031272;28;20112;-71
2022/05/04 05:43:31;;;;;;;5.70;5.10;;;;;;;12.92;nan;100506.03;5028352;28;20525;-71
2022/05/04 05:45:57;;;;;;;5.97;5.05;;;;;;;12.90;nan;100518.63;5034260;28;20579;-72
2022/05/04 05:48:22;;;;;;;8.00;5.93;;;;;;;12.78;nan;100514.66;5030790;28;20350;-72
2022/05/04 05:50:47;;;;;;;6.35;5.72;;;;;;;12.77;nan;100525.44;5030335;28;20453;-71
2022/05/04 05:53:14;;;;;;;7.53;6.70;;;;;;;12.63;nan;100525.13;5033309;28;20049;-71
2022/05/04 05:55:40;;;;;;;7.15;6.22;;;;;;;12.59;nan;100534.41;5038375;28;20405;-71
2022/05/04 05:58:06;;;;;;;6.47;5.72;;;;;;;12.59;nan;100533.56;5032782;28;20409;-72
2022/05/04 06:00:31;;;;;;;9.05;7.22;;;;;;;12.56;nan;100533.88;5033956;28;20087;-71
2022/05/04 06:02:56;;;;;;;6.88;6.18;;;;;;;12.56;nan;100533.88;5028330;28;20053;-70
2022/05/04 06:05:22;;;;;;;7.32;6.32;;;;;;;12.63;nan;100530.44;5028339;28;20038;-71
2022/05/04 06:07:48;;;;;;;8.75;7.65;;;;;;;12.55;nan;100533.06;5028303;28;20394;-70
2022/05/04 06:10:14;;;;;;;12.43;8.95;;;;;;;12.44;nan;100534.22;5028724;28;20030;-71
2022/05/04 06:12:40;;;;;;;11.75;9.50;;;;;;;12.36;nan;100544.78;5028562;28;20034;-70
2022/05/04 06:15:09;;;;;;;10.68;9.57;;;;;;;12.31;nan;100544.47;5027058;28;20159;-70
2022/05/04 06:17:35;;;;;;;10.13;8.38;;;;;;;12.43;nan;100550.28;5028300;28;20049;-70
2022/05/04 06:20:01;;;;;;;9.50;8.10;;;;;;;12.72;nan;100550.63;5030632;28;20026;-71
2022/05/04 06:22:26;;;;;;;9.10;8.05;;;;;;;13.00;nan;100545.00;5030247;28;20464;-71
2022/05/04 06:24:51;;;;;;;9.27;8.27;;;;;;;13.25;nan;100551.13;5028981;28;20022;-71
2022/05/04 06:27:17;;;;;;;10.35;7.03;;;;;;;13.40;nan;100555.78;5030245;28;20041;-71
2022/05/04 06:35:11;;;;;;;6.88;5.78;;;;;;;14.02;nan;100554.06;5024342;28;20060;-71
2022/05/04 06:37:36;;;;;;;6.18;5.38;;;;;;;14.24;nan;100559.59;5025414;28;20387;-71
2022/05/04 06:40:03;;;;;;;7.53;5.53;;;;;;;14.34;nan;100549.56;5028127;28;20132;-71
2022/05/04 06:42:29;;;;;;;8.27;6.20;;;;;;;14.52;nan;100556.44;5028223;28;20064;-71
2022/05/04 06:44:54;;;;;;;7.50;5.47;;;;;;;14.76;nan;100556.28;5028824;28;20505;-71
2022/05/04 06:47:19;;;;;;;7.75;6.40;;;;;;;14.74;nan;100554.81;5029030;28;20029;-71
2022/05/04 06:49:45;;;;;;;7.50;5.50;;;;;;;14.80;nan;100549.63;5030732;28;20040;-71
2022/05/04 06:52:10;;;;;;;8.18;6.13;;;;;;;14.95;nan;100551.50;5026547;28;20064;-71
2022/05/04 06:54:37;;;;;;;6.32;5.40;;;;;;;15.28;nan;100562.66;5030083;28;20479;-71
2022/05/04 06:57:02;;;;;;;5.75;5.15;;;;;;;15.60;nan;100558.81;5028875;28;20052;-71
2022/05/04 06:59:28;;;;;;;6.45;5.22;;;;;;;15.93;nan;100550.47;5027567;28;20026;-71
2022/05/04 07:01:54;;;;;;;5.50;4.57;;;;;;;16.19;nan;100560.63;4989325;28;1097443;-71
2022/05/04 07:04:20;;;;;;;5.15;4.63;;;;;;;16.34;nan;100553.41;5027936;28;20040;-71
2022/05/04 07:06:46;;;;;;;7.38;6.18;;;;;;;16.23;nan;100567.25;5029052;28;20030;-72
2022/05/04 07:09:11;;;;;;;8.10;6.05;;;;;;;16.28;nan;100559.50;5028758;28;20034;-70
2022/05/04 07:11:36;;;;;;;6.20;5.60;;;;;;;16.34;nan;100552.56;5028342;28;20033;-70
2022/05/04 07:14:01;;;;;;;5.80;4.88;;;;;;;16.58;nan;100551.38;5028363;28;20041;-70
2022/05/04 07:16:27;;;;;;;6.20;5.20;;;;;;;16.71;nan;100550.69;5027414;28;20120;-70
2022/05/04 07:18:52;;;;;;;6.33;5.60;;;;;;;16.87;nan;100558.44;5026701;28;20427;-72
2022/05/04 07:21:18;;;;;;;7.15;5.35;;;;;;;16.87;nan;100558.44;5028686;28;20042;-72
2022/05/04 07:23:43;;;;;;;6.32;5.55;;;;;;;16.84;nan;100555.34;5029270;28;20041;-72
2022/05/04 07:26:08;;;;;;;7.13;6.43;;;;;;;16.78;nan;100551.59;5029293;28;20083;-72
2022/05/04 07:28:34;;;;;;;7.93;6.47;;;;;;;16.75;nan;100551.94;5031989;28;20087;-72
2022/05/04 07:30:59;;;;;;;6.13;5.40;;;;;;;16.79;nan;100553.25;5030192;28;20148;-71
2022/05/04 07:33:24;;;;;;;7.93;6.18;;;;;;;16.85;nan;100565.84;5029824;28;20037;-70
2022/05/04 07:35:50;;;;;;;5.47;4.47;;;;;;;17.03;nan;100552.03;5028170;28;20051;-71
2022/05/04 07:38:15;;;;;;;4.77;4.27;;;;;;;17.35;nan;100563.13;5026743;28;20411;-71
2022/05/04 07:43:25;;;;;;;4.75;4.22;;;;;;;17.81;nan;100565.31;5025842;28;20430;-70
2022/05/04 07:45:50;;;;;;;4.97;4.47;;;;;;;18.00;nan;100561.06;5026483;28;20403;-70
2022/05/04 07:48:16;;;;;;;5.13;4.63;;;;;;;18.20;nan;100563.81;5023737;28;20422;-71
2022/05/04 07:50:41;;;;;;;5.20;4.70;;;;;;;18.40;nan;100561.19;5026482;28;20399;-71
2022/05/04 07:53:06;;;;;;;4.80;4.30;;;;;;;18.64;nan;100566.00;5026793;28;20513;-71
2022/05/04 07:55:32;;;;;;;5.15;4.00;;;;;;;19.30;nan;100564.38;5028975;28;20041;-71
2022/05/04 07:57:58;;;;;;;4.38;3.70;;;;;;;20.41;nan;100563.38;5028532;28;20128;-71
2022/05/04 08:05:52;;;;;;;8.18;6.15;;;;;;;21.52;nan;100569.16;5022263;28;20044;-71
2022/05/04 08:08:17;;;;;;;7.07;6.25;;;;;;;21.21;nan;100563.66;5024119;28;20045;-71
2022/05/04 08:10:42;;;;;;;7.40;5.03;;;;;;;21.60;nan;100568.88;5026419;28;20056;-71
2022/05/04 08:13:08;;;;;;;5.35;4.80;;;;;;;22.66;nan;100564.00;5026204;28;20120;-70
2022/05/04 08:15:33;;;;;;;5.63;5.03;;;;;;;23.24;nan;100565.16;5026034;28;20434;-71
2022/05/04 08:17:59;;;;;;;5.45;4.60;;;;;;;23.80;nan;100562.91;5026754;28;20036;-71
2022/05/04 08:20:25;;;;;;;4.53;4.03;;;;;;;24.46;nan;100566.09;5024573;28;20041;-71
2022/05/04 08:22:51;;;;;;;5.75;4.50;;;;;;;25.31;nan;100569.66;5027612;28;20045;-71
2022/05/04 08:25:17;;;;;;;5.40;4.53;;;;;;;25.98;nan;100579.53;5024908;28;20041;-72
2022/05/04 08:27:44;;;;;;;6.97;5.72;;;;;;;25.69;nan;100570.72;5027507;28;20036;-72
2022/05/04 08:30:09;;;;;;;5.45;4.72;;;;;;;25.32;nan;100574.84;5022117;28;20022;-71
2022/05/04 08:32:35;;;;;;;5.63;4.47;;;;;;;25.55;nan;100571.13;5024416;28;20041;-72
2022/05/04 08:35:00;;;;;;;5.18;4.35;;;;;;;26.10;nan;100580.22;5026610;28;20030;-71
2022/05/04 08:37:29;;;;;;;6.20;5.40;;;;;;;26.18;nan;100574.34;5026338;28;20498;-72
2022/05/04 08:39:58;;;;;;;5.60;5.00;;;;;;;26.87;nan;100567.44;5031541;28;20105;-72
2022/05/04 08:42:24;;;;;;;5.78;4.60;;;;;;;27.06;nan;100565.94;5031519;28;20038;-71
2022/05/04 08:44:55;;;;;;;4.40;3.80;;;;;;;27.81;nan;100570.47;5032428;28;20051;-72
2022/05/04 08:47:22;;;;;;;6.07;4.80;;;;;;;27.82;nan;100572.13;5032254;28;20041;-71
2022/05/04 08:49:48;;;;;;;5.55;3.95;;;;;;;27.93;nan;100571.88;5033765;28;20034;-71
2022/05/04 08:52:15;;;;;;;6.43;4.25;;;;;;;27.88;nan;100580.03;5030281;28;20033;-72
2022/05/04 08:54:42;;;;;;;5.65;4.72;;;;;;;28.42;nan;100578.03;5030547;28;20029;-72
2022/05/04 08:57:08;;;;;;;5.28;4.10;;;;;;;29.21;nan;100568.53;5027712;28;20044;-71
2022/05/04 08:59:34;;;;;;;3.95;3.40;;;;;;;29.65;nan;100576.03;5028039;28;20848;-72
2022/05/04 09:01:59;;;;;;;5.63;4.95;;;;;;;29.46;nan;100573.09;5031733;28;20033;-71
2022/05/04 09:04:24;;;;;;;5.03;4.03;;;;;;;29.67;nan;100570.34;5028682;28;20040;-72
2022/05/04 09:06:50;;;;;;;6.10;4.55;;;;;;;29.43;nan;100573.66;5029828;28;20042;-72
2022/05/04 09:09:16;;;;;;;5.63;3.63;;;;;;;29.70;nan;100567.91;5028847;28;20037;-72
2022/05/04 09:11:43;;;;;;;5.55;4.50;;;;;;;30.15;nan;100566.03;5030428;28;20123;-71
2022/05/04 09:14:12;;;;;;;4.90;3.70;;;;;;;29.89;nan;100564.53;5028748;28;20029;-72
2022/05/04 09:16:38;;;;;;;3.95;3.50;;;;;;;30.51;nan;100568.56;5029622;28;20617;-72
2022/05/04 09:19:07;;;;;;;4.97;3.90;;;;;;;30.95;nan;100569.59;5031335;28;20029;-72
2022/05/04 09:21:32;;;;;;;;;;;;;;;31.16;nan;100564.75;5031851;28;20584;-72
2022/05/04 09:23:58;;;;;;;;;;;;;;;31.51;nan;100558.94;5031822;28;19917;-72
2022/05/04 09:26:23;;;;;;;;;;;;;;;31.49;nan;100560.34;5029786;28;20444;-72
2022/05/04 09:28:56;;;;;;;5.28;3.45;;;;;;;31.56;nan;100562.69;5029850;28;20360;-72
2022/05/04 09:31:26;;;;;;;4.25;3.72;;;;;;;31.05;nan;100564.03;5028232;28;20242;-72
2022/05/04 09:33:53;;;;;;;;;;;;;;;30.06;nan;100559.56;5029654;28;20037;-72
2022/05/04 09:36:31;;;;;;;5.43;3.83;;;;;;;28.95;nan;100464.28;5028620;28;19990;-71
2022/05/04 09:47:20;;;;;;;4.45;3.00;;;;;;;32.48;nan;100539.56;5029913;28;20055;-71
2022/05/04 09:49:50;;;;;;;5.00;3.88;;;;;;;32.96;nan;100542.06;5024829;28;20033;-72
2022/05/04 09:52:21;;;;;;;4.55;4.05;;;;;;;32.09;nan;100543.47;5030165;28;20509;-72
2022/05/04 09:54:47;;;;;;;5.47;4.15;;;;;;;31.62;nan;100539.69;5023032;28;20042;-72
2022/05/04 09:57:12;;;;;;;5.55;3.42;;;;;;;30.93;nan;100536.31;5027502;28;20407;-72
2022/05/04 09:59:38;;;;;;;6.38;3.60;;;;;;;30.66;nan;100535.69;5028144;28;20125;-72
2022/05/04 10:02:09;;;;;;;4.38;3.20;;;;;;;31.71;nan;100535.19;5027194;28;20056;-71
2022/05/04 10:04:35;;;;;;;;;;;;;;;32.34;nan;100534.84;5030812;28;20044;-72
2022/05/04 10:07:03;;;;;;;4.95;3.60;;;;;;;32.41;nan;100533.66;5029466;28;19931;-72
2022/05/04 10:09:28;;;;;;;3.85;3.00;;;;;;;32.47;nan;100540.69;5032624;28;20441;-71
2022/05/04 10:11:58;;;;;;;4.30;2.83;;;;;;;32.78;nan;100549.25;5028296;28;20113;-72
2022/05/04 10:14:25;;;;;;;4.03;3.17;;;;;;;32.69;nan;100538.16;5027087;28;20044;-72
2022/05/04 10:16:53;;;;;;;3.97;2.90;;;;;;;32.51;nan;100539.84;5024731;28;20068;-72
2022/05/04 10:19:25;;;;;;;4.03;3.40;;;;;;;32.60;nan;100530.94;5029293;28;20103;-72
2022/05/04 10:21:56;;;;;;;3.65;3.22;;;;;;;31.99;nan;100530.75;5028842;28;20150;-72
2022/05/04 10:24:24;;;;;;;5.80;3.55;;;;;;;31.64;nan;100526.53;5022525;28;20051;-72
2022/05/04 10:26:49;;;;;;;4.53;3.15;;;;;;;31.67;nan;100523.19;5028984;28;20612;-72
2022/05/04 10:32:08;;;;;;;3.97;3.30;;;;;;;33.15;nan;100509.13;5025757;28;20188;-72
2022/05/04 10:34:39;;;;;;;3.38;3.00;;;;;;;34.17;nan;100515.22;5028014;28;20120;-72
2022/05/04 10:37:05;;;;;;;4.80;4.20;;;;;;;33.49;nan;100505.16;5028764;28;20061;-72
2022/05/04 10:39:31;;;;;;;3.75;3.08;;;;;;;33.93;nan;100503.69;5028541;28;20068;-72
2022/05/04 10:41:56;;;;;;;4.07;3.00;;;;;;;34.57;nan;100503.56;5028436;28;20478;-72
2022/05/04 10:44:42;;;;;;;;;;;;;;;34.13;nan;100505.19;5028528;28;20045;-72
2022/05/04 10:47:07;;;;;;;5.85;2.80;;;;;;;33.81;nan;100504.25;5030059;28;19932;-72
2022/05/04 10:49:36;;;;;;;4.28;3.20;;;;;;;35.03;nan;100505.13;5030702;28;20129;-72
2022/05/04 10:52:04;;;;;;;4.13;3.70;;;;;;;33.93;nan;100498.22;5026037;28;20419;-72
2022/05/04 10:54:29;;;;;;;3.60;2.60;;;;;;;33.05;nan;100495.66;5025551;28;20117;-72
2022/05/04 10:56:55;;;;;;;7.40;4.05;;;;;;;31.34;nan;100487.50;5030573;28;20121;-72
2022/05/04 10:59:34;;;;;;;6.00;3.55;;;;;;;30.91;nan;100481.97;5028974;28;20049;-71
2022/05/04 11:02:04;;;;;;;4.85;3.35;;;;;;;31.40;nan;100489.09;5024723;28;20221;-72
2022/05/04 11:04:31;;;;;;;4.13;3.63;;;;;;;32.26;nan;100486.28;5026564;28;20041;-72
2022/05/04 11:06:59;;;;;;;;;;;;;;;31.74;nan;100483.44;5030530;28;20121;-72
2022/05/04 11:09:29;;;;;;;5.38;4.35;;;;;;;29.90;nan;100485.19;5042821;28;19936;-71
2022/05/04 11:12:01;;;;;;;;;;;;;;;30.01;nan;100483.19;5024802;28;20638;-72
2022/05/04 11:14:27;;;;;;;5.22;3.70;;;;;;;29.78;nan;100477.34;5024810;28;19948;-72
2022/05/04 11:16:54;;;;;;;4.78;3.92;;;;;;;30.22;nan;100479.25;5029603;28;20045;-72
2022/05/04 11:19:23;;;;;;;4.70;3.60;;;;;;;31.06;nan;100468.16;5027329;28;20132;-71
2022/05/04 11:21:49;;;;;;;5.35;3.90;;;;;;;32.10;nan;100469.28;5041720;28;20493;-72
2022/05/04 11:24:16;;;;;;;4.60;3.00;;;;;;;33.82;nan;100478.41;5029690;28;20044;-72
2022/05/04 11:26:45;;;;;;;4.78;2.95;;;;;;;33.12;nan;100472.19;5029470;28;20030;-72
2022/05/04 11:29:11;;;;;;;4.10;2.97;;;;;;;32.23;nan;100472.41;5023800;28;20034;-72
2022/05/04 11:31:41;;;;;;;4.05;3.50;;;;;;;30.52;nan;100474.69;5027764;28;20033;-72
2022/05/04 11:34:06;;;;;;;4.75;3.08;;;;;;;30.14;nan;100477.13;5028632;28;20036;-72
2022/05/04 11:36:32;;;;;;;5.07;3.55;;;;;;;32.20;nan;100479.25;5027212;28;20501;-72
2022/05/04 11:38:57;;;;;;;6.10;3.83;;;;;;;33.33;nan;100469.84;5027404;28;20128;-72
2022/05/04 11:41:22;;;;;;;5.78;3.30;;;;;;;34.15;nan;100470.81;5027112;28;20034;-72
2022/05/04 11:43:51;;;;;;;4.00;2.70;;;;;;;35.66;nan;100473.66;5032398;28;20033;-72
2022/05/04 11:46:17;;;;;;;4.43;2.75;;;;;;;35.64;nan;100470.41;5023928;28;20080;-72
2022/05/04 11:48:47;;;;;;;4.53;3.17;;;;;;;35.85;nan;100467.00;5023606;28;20068;-72
2022/05/04 11:51:15;;;;;;;2.90;2.20;;;;;;;36.50;nan;100463.22;5028657;28;20492;-72
2022/05/04 11:53:41;;;;;;;4.28;2.92;;;;;;;36.94;nan;100463.91;5027867;28;20516;-72
2022/05/04 11:56:08;;;;;;;3.65;2.90;;;;;;;36.59;nan;100456.91;5026347;28;20144;-72
2022/05/04 11:58:35;;;;;;;4.68;3.63;;;;;;;36.27;nan;100456.31;5042660;28;20037;-72
2022/05/04 12:01:03;;;;;;;5.82;4.45;;;;;;;35.64;nan;100458.59;5027424;28;20048;-72
2022/05/04 12:03:32;;;;;;;3.90;2.88;;;;;;;35.22;nan;100458.97;5026482;28;20116;-73
2022/05/04 12:06:00;;;;;;;3.95;3.00;;;;;;;35.26;nan;100450.91;5027962;28;20125;-73
2022/05/04 12:08:26;;;;;;;4.00;2.85;;;;;;;34.63;nan;100452.88;5026585;28;20133;-74
2022/05/04 12:10:52;;;;;;;3.40;2.65;;;;;;;34.01;nan;100446.13;5027307;28;20029;-73
2022/05/04 12:13:25;;;;;;;5.75;3.78;;;;;;;31.95;nan;100439.44;5025831;28;20040;-73